Time;durP1;ratioP1;P1;durP2;ratioP2;P2;SDS_P1;SDS_P2;PMS_P1;PMS_P2;Temp;Humidity;BMP_temperature;BMP_pressure;BME280_temperature;BME280_humidity;BME280_pressure;Samples;Min_cycle;Max_cycle;Signal;HPM_P1;HPM_P2
2023/06/29 00:00:22;;;;;;;44.15;28.05;;;;;;;;;;5041771;28;20036;-74
2023/06/29 00:02:48;;;;;;;41.20;28.20;;;;;;;;;;5037709;28;20442;-74
2023/06/29 00:05:14;;;;;;;43.53;28.75;;;;;;;;;;5046012;28;20120;-74
2023/06/29 00:07:41;;;;;;;36.97;27.75;;;;;;;;;;5040990;28;20036;-74
2023/06/29 00:10:08;;;;;;;42.70;27.75;;;;;;;;;;5040788;28;20025;-74
2023/06/29 00:12:34;;;;;;;40.92;28.20;;;;;;;;;;5041290;28;20110;-73
2023/06/29 00:15:00;;;;;;;38.05;27.25;;;;;;;;;;5040387;28;20560;-73
2023/06/29 00:17:26;;;;;;;44.17;30.27;;;;;;;;;;5036046;28;20491;-73
2023/06/29 00:19:52;;;;;;;38.75;28.15;;;;;;;;;;5037727;28;20502;-74
2023/06/29 00:22:21;;;;;;;46.10;31.88;;;;;;;;;;5036109;28;20482;-74
2023/06/29 00:24:54;;;;;;;42.65;29.08;;;;;;;;;;5040221;28;20402;-73
2023/06/29 00:27:20;;;;;;;39.70;27.70;;;;;;;;;;5036286;28;20025;-74
2023/06/29 00:29:46;;;;;;;36.55;27.85;;;;;;;;;;5034097;28;20486;-74
2023/06/29 00:32:13;;;;;;;43.05;27.98;;;;;;;;;;5038409;28;21586;-74
2023/06/29 00:34:39;;;;;;;50.90;31.92;;;;;;;;;;5042223;28;20037;-74
2023/06/29 00:37:05;;;;;;;50.75;34.05;;;;;;;;;;5038529;28;20396;-74
2023/06/29 00:39:32;;;;;;;42.50;30.48;;;;;;;;;;5040172;28;20032;-74
2023/06/29 00:41:58;;;;;;;43.53;29.70;;;;;;;;;;5036114;28;20029;-74
2023/06/29 00:44:24;;;;;;;48.95;30.77;;;;;;;;;;5034712;28;20160;-74
2023/06/29 00:46:52;;;;;;;46.45;28.17;;;;;;;;;;5045868;28;20397;-74
2023/06/29 00:49:19;;;;;;;46.38;29.45;;;;;;;;;;5035591;28;20409;-74
2023/06/29 00:51:54;;;;;;;52.08;33.75;;;;;;;;;;5044034;28;20493;-74
2023/06/29 00:54:23;;;;;;;53.05;34.60;;;;;;;;;;5038136;28;20100;-74
2023/06/29 00:56:49;;;;;;;50.25;34.00;;;;;;;;;;5034968;28;20032;-75
2023/06/29 00:59:15;;;;;;;43.70;31.55;;;;;;;;;;5034073;28;20048;-74
2023/06/29 01:01:42;;;;;;;46.83;30.55;;;;;;;;;;5035727;28;20478;-74
2023/06/29 01:04:09;;;;;;;48.30;32.05;;;;;;;;;;5036845;28;20554;-74
2023/06/29 01:06:56;;;;;;;51.78;32.13;;;;;;;;;;5046221;28;20044;-74
2023/06/29 01:09:23;;;;;;;50.33;33.83;;;;;;;;;;5038689;28;20037;-75
2023/06/29 01:11:49;;;;;;;50.90;34.30;;;;;;;;;;5036205;28;20041;-74
2023/06/29 01:14:16;;;;;;;50.90;33.03;;;;;;;;;;5040041;28;20041;-74
2023/06/29 01:16:43;;;;;;;52.15;32.80;;;;;;;;;;5035052;28;20092;-74
2023/06/29 01:19:12;;;;;;;48.90;33.05;;;;;;;;;;5037089;28;20026;-74
2023/06/29 01:21:43;;;;;;;47.95;32.90;;;;;;;;;;5041386;28;20455;-74
2023/06/29 01:24:09;;;;;;;54.22;33.53;;;;;;;;;;5035894;28;20391;-74
2023/06/29 01:26:38;;;;;;;50.60;34.30;;;;;;;;;;5040434;28;20341;-74
2023/06/29 01:29:05;;;;;;;47.70;33.85;;;;;;;;;;5038143;28;20144;-74
2023/06/29 01:31:31;;;;;;;51.78;33.65;;;;;;;;;;5035223;28;20025;-74
2023/06/29 01:33:57;;;;;;;53.50;35.42;;;;;;;;;;5038029;28;20058;-74
2023/06/29 01:36:31;;;;;;;54.05;35.33;;;;;;;;;;5037310;28;20106;-74
2023/06/29 01:39:02;;;;;;;53.25;33.38;;;;;;;;;;5044164;28;20444;-74
2023/06/29 01:41:30;;;;;;;58.97;34.53;;;;;;;;;;5044437;28;20144;-74
2023/06/29 01:43:56;;;;;;;53.70;34.08;;;;;;;;;;5037239;28;20037;-74
2023/06/29 01:46:22;;;;;;;52.60;35.33;;;;;;;;;;5035523;28;20027;-74
2023/06/29 01:48:49;;;;;;;55.80;35.17;;;;;;;;;;5038594;28;20040;-74
2023/06/29 01:51:15;;;;;;;50.75;33.30;;;;;;;;;;5032703;28;20069;-74
2023/06/29 01:53:41;;;;;;;51.70;34.58;;;;;;;;;;5035788;28;20029;-74
2023/06/29 01:56:07;;;;;;;49.30;33.90;;;;;;;;;;5030737;28;20375;-74
2023/06/29 01:58:33;;;;;;;56.78;34.58;;;;;;;;;;5035861;28;20025;-74
2023/06/29 02:00:59;;;;;;;53.35;34.60;;;;;;;;;;5034238;28;20041;-75
2023/06/29 02:03:25;;;;;;;53.72;35.22;;;;;;;;;;5036378;28;20471;-74
2023/06/29 02:05:51;;;;;;;56.08;33.63;;;;;;;;;;5042254;28;20206;-74
2023/06/29 02:08:17;;;;;;;53.47;34.05;;;;;;;;;;5036227;28;20492;-74
2023/06/29 02:10:43;;;;;;;45.05;31.67;;;;;;;;;;5037359;28;20045;-74
2023/06/29 02:13:09;;;;;;;46.25;32.72;;;;;;;;;;5044923;28;20056;-74
2023/06/29 02:15:35;;;;;;;52.38;34.10;;;;;;;;;;5038391;28;20394;-74
2023/06/29 02:18:01;;;;;;;57.88;34.50;;;;;;;;;;5040116;28;20029;-74
2023/06/29 02:20:27;;;;;;;50.28;32.55;;;;;;;;;;5042324;28;20056;-74
2023/06/29 02:22:53;;;;;;;49.90;32.92;;;;;;;;;;5035275;28;20088;-74
2023/06/29 02:25:19;;;;;;;47.22;31.10;;;;;;;;;;5038567;28;20049;-74
2023/06/29 02:27:45;;;;;;;48.80;30.50;;;;;;;;;;5042097;28;20104;-74
2023/06/29 02:30:12;;;;;;;51.08;32.40;;;;;;;;;;5030695;28;20105;-74
2023/06/29 02:32:38;;;;;;;47.25;31.45;;;;;;;;;;5044192;28;20117;-74
2023/06/29 02:35:04;;;;;;;47.67;31.52;;;;;;;;;;5036668;28;20037;-74
2023/06/29 02:37:30;;;;;;;54.70;31.23;;;;;;;;;;5035068;28;20037;-74
2023/06/29 02:39:56;;;;;;;42.65;29.60;;;;;;;;;;5041129;28;20033;-74
2023/06/29 02:42:22;;;;;;;45.85;31.60;;;;;;;;;;5050356;28;20041;-74
2023/06/29 02:44:48;;;;;;;46.10;32.15;;;;;;;;;;5032057;28;20379;-74
2023/06/29 02:47:14;;;;;;;43.60;31.00;;;;;;;;;;5036170;28;20029;-74
2023/06/29 02:49:40;;;;;;;45.28;30.67;;;;;;;;;;5036853;28;20033;-74
2023/06/29 02:52:07;;;;;;;39.50;28.83;;;;;;;;;;5039279;28;20506;-74
2023/06/29 02:54:33;;;;;;;49.58;29.60;;;;;;;;;;5041004;28;20489;-74
2023/06/29 02:56:59;;;;;;;43.38;28.83;;;;;;;;;;5035637;28;20041;-74
2023/06/29 02:59:25;;;;;;;44.45;28.73;;;;;;;;;;5031200;28;20040;-74
2023/06/29 03:01:51;;;;;;;43.22;30.50;;;;;;;;;;5038802;28;20033;-74
2023/06/29 03:04:17;;;;;;;47.00;27.85;;;;;;;;;;5033964;28;20033;-74
2023/06/29 03:06:43;;;;;;;42.20;28.98;;;;;;;;;;5039940;28;20120;-73
2023/06/29 03:09:09;;;;;;;43.88;29.35;;;;;;;;;;5032965;28;20039;-75
2023/06/29 03:11:35;;;;;;;48.78;31.30;;;;;;;;;;5041897;28;20047;-76
2023/06/29 03:14:01;;;;;;;46.60;30.23;;;;;;;;;;5030447;28;20041;-75
2023/06/29 03:16:27;;;;;;;43.25;28.15;;;;;;;;;;5031686;28;20096;-73
2023/06/29 03:18:53;;;;;;;40.33;28.25;;;;;;;;;;5035204;28;20037;-75
2023/06/29 03:21:19;;;;;;;56.33;37.47;;;;;;;;;;5049922;28;20029;-77
2023/06/29 03:23:46;;;;;;;37.58;27.88;;;;;;;;;;5042647;28;20116;-77
2023/06/29 03:26:12;;;;;;;41.67;28.50;;;;;;;;;;5050813;28;20459;-78
2023/06/29 03:28:38;;;;;;;40.05;27.88;;;;;;;;;;5045848;28;20039;-73
2023/06/29 03:31:04;;;;;;;43.88;28.80;;;;;;;;;;5043222;28;20033;-73
2023/06/29 03:33:30;;;;;;;42.92;28.33;;;;;;;;;;5042392;28;20029;-75
2023/06/29 03:35:56;;;;;;;42.65;27.63;;;;;;;;;;5054498;28;20036;-74
2023/06/29 03:38:22;;;;;;;38.45;26.60;;;;;;;;;;5050192;28;20033;-75
2023/06/29 03:40:48;;;;;;;35.08;26.10;;;;;;;;;;5053475;28;20041;-75
2023/06/29 03:43:14;;;;;;;41.33;28.10;;;;;;;;;;5050713;28;20032;-74
2023/06/29 03:45:40;;;;;;;40.53;27.50;;;;;;;;;;5045910;28;20104;-72
2023/06/29 03:48:06;;;;;;;43.75;29.88;;;;;;;;;;5045305;28;20082;-76
2023/06/29 03:50:32;;;;;;;43.90;28.20;;;;;;;;;;5053178;28;20212;-74
2023/06/29 03:52:58;;;;;;;39.45;25.75;;;;;;;;;;5038579;28;20560;-74
2023/06/29 03:55:24;;;;;;;39.90;26.30;;;;;;;;;;5030849;28;20018;-74
2023/06/29 03:57:51;;;;;;;36.83;25.35;;;;;;;;;;5037496;28;20475;-74
2023/06/29 04:00:17;;;;;;;39.55;27.63;;;;;;;;;;5049996;28;20032;-73
2023/06/29 04:02:43;;;;;;;37.67;26.30;;;;;;;;;;5050225;28;20044;-74
2023/06/29 04:05:09;;;;;;;42.10;25.75;;;;;;;;;;5042684;28;20044;-73
2023/06/29 04:07:35;;;;;;;35.10;24.05;;;;;;;;;;5032928;28;20037;-73
2023/06/29 04:10:02;;;;;;;33.83;23.45;;;;;;;;;;5050357;28;20613;-74
2023/06/29 04:12:28;;;;;;;41.10;26.38;;;;;;;;;;5047222;28;20443;-73
2023/06/29 04:14:54;;;;;;;35.17;23.27;;;;;;;;;;5045922;28;20041;-72
2023/06/29 04:17:20;;;;;;;35.28;23.52;;;;;;;;;;5047898;28;20033;-72
2023/06/29 04:19:46;;;;;;;38.85;22.70;;;;;;;;;;5046746;28;20040;-72
2023/06/29 04:22:12;;;;;;;34.40;22.05;;;;;;;;;;5034046;28;20048;-73
2023/06/29 04:24:39;;;;;;;32.00;22.52;;;;;;;;;;5043963;28;20029;-73
2023/06/29 04:27:05;;;;;;;36.30;22.80;;;;;;;;;;5051706;28;20040;-73
2023/06/29 04:29:31;;;;;;;35.45;22.45;;;;;;;;;;5048105;28;20039;-72
2023/06/29 04:31:58;;;;;;;32.03;23.65;;;;;;;;;;5048789;28;20037;-75
2023/06/29 04:34:24;;;;;;;32.08;22.88;;;;;;;;;;5048462;28;20368;-78
2023/06/29 04:36:50;;;;;;;29.00;20.65;;;;;;;;;;5032918;28;20386;-73
2023/06/29 04:39:16;;;;;;;39.42;22.80;;;;;;;;;;5045556;28;20037;-73
2023/06/29 04:41:42;;;;;;;36.15;22.55;;;;;;;;;;5064759;28;20369;-73
2023/06/29 04:44:09;;;;;;;34.97;23.35;;;;;;;;;;5058290;28;20033;-73
2023/06/29 04:46:38;;;;;;;30.05;20.92;;;;;;;;;;5049390;28;20387;-73
2023/06/29 04:49:07;;;;;;;31.73;21.88;;;;;;;;;;5040695;28;20030;-73
2023/06/29 04:51:35;;;;;;;27.77;20.73;;;;;;;;;;5033741;28;20057;-73
2023/06/29 04:54:01;;;;;;;34.70;22.73;;;;;;;;;;5053470;28;20056;-73
2023/06/29 04:56:27;;;;;;;31.15;22.00;;;;;;;;;;5057531;28;20373;-73
2023/06/29 04:58:53;;;;;;;30.98;22.13;;;;;;;;;;5055915;28;20048;-73
2023/06/29 05:01:19;;;;;;;30.88;20.77;;;;;;;;;;5047666;28;20489;-73
2023/06/29 05:03:45;;;;;;;30.08;21.50;;;;;;;;;;5060873;28;20040;-73
2023/06/29 05:06:11;;;;;;;30.58;20.55;;;;;;;;;;5051083;28;20060;-73
2023/06/29 05:08:37;;;;;;;33.55;21.73;;;;;;;;;;5051056;28;20064;-73
2023/06/29 05:11:04;;;;;;;33.22;21.52;;;;;;;;;;5048791;28;20530;-74
2023/06/29 05:13:30;;;;;;;29.25;20.00;;;;;;;;;;5048841;28;20037;-73
2023/06/29 05:15:56;;;;;;;31.02;21.38;;;;;;;;;;5056497;28;20028;-73
2023/06/29 05:18:22;;;;;;;33.70;21.10;;;;;;;;;;5059510;28;20031;-73
2023/06/29 05:20:48;;;;;;;30.02;20.83;;;;;;;;;;5056318;28;20033;-73
2023/06/29 05:23:14;;;;;;;30.05;20.27;;;;;;;;;;5050452;28;20034;-73
2023/06/29 05:25:41;;;;;;;28.95;19.25;;;;;;;;;;5052659;28;20016;-73
2023/06/29 05:28:07;;;;;;;30.65;20.70;;;;;;;;;;5055986;28;20047;-73
2023/06/29 05:30:34;;;;;;;27.35;19.52;;;;;;;;;;5057910;28;20132;-73
2023/06/29 05:33:00;;;;;;;25.83;19.48;;;;;;;;;;5055014;28;20066;-73
2023/06/29 05:35:26;;;;;;;28.40;19.38;;;;;;;;;;5051178;28;20060;-73
2023/06/29 05:37:52;;;;;;;28.13;19.42;;;;;;;;;;5057125;28;20394;-73
2023/06/29 05:40:18;;;;;;;29.95;19.98;;;;;;;;;;5050258;28;20036;-73
2023/06/29 05:42:44;;;;;;;32.15;20.55;;;;;;;;;;5047391;28;20045;-73
2023/06/29 05:45:10;;;;;;;31.23;20.23;;;;;;;;;;5049201;28;20107;-74
2023/06/29 05:47:36;;;;;;;29.02;19.88;;;;;;;;;;5057488;28;20042;-73
2023/06/29 05:50:04;;;;;;;34.63;20.15;;;;;;;;;;5054640;28;20033;-73
2023/06/29 05:52:30;;;;;;;27.00;19.58;;;;;;;;;;5055975;28;20735;-73
2023/06/29 05:54:56;;;;;;;28.77;18.98;;;;;;;;;;5046705;28;20029;-73
2023/06/29 05:57:22;;;;;;;27.17;19.95;;;;;;;;;;5056996;28;20117;-73
2023/06/29 05:59:48;;;;;;;25.88;18.42;;;;;;;;;;5056449;28;20033;-73
2023/06/29 06:02:14;;;;;;;28.35;19.98;;;;;;;;;;5054650;28;20040;-73
2023/06/29 06:04:42;;;;;;;28.77;19.42;;;;;;;;;;5054600;28;20044;-73
2023/06/29 06:07:08;;;;;;;28.88;18.80;;;;;;;;;;5054715;28;20027;-73
2023/06/29 06:09:34;;;;;;;29.65;19.27;;;;;;;;;;5055401;28;20041;-73
2023/06/29 06:12:00;;;;;;;28.38;19.60;;;;;;;;;;5056063;28;20122;-73
2023/06/29 06:14:26;;;;;;;28.00;19.45;;;;;;;;;;5047645;28;20482;-73
2023/06/29 06:16:52;;;;;;;29.20;20.77;;;;;;;;;;5049717;28;20029;-73
2023/06/29 06:19:18;;;;;;;29.00;19.85;;;;;;;;;;5049156;28;20486;-73
2023/06/29 06:21:44;;;;;;;30.45;18.67;;;;;;;;;;5050193;28;20051;-74
2023/06/29 06:24:11;;;;;;;33.17;19.02;;;;;;;;;;5049706;28;20039;-74
2023/06/29 06:26:37;;;;;;;37.15;19.98;;;;;;;;;;5054106;28;20029;-74
2023/06/29 06:29:03;;;;;;;32.45;21.33;;;;;;;;;;5051388;28;20385;-74
2023/06/29 06:31:29;;;;;;;38.78;20.42;;;;;;;;;;5052496;28;20056;-75
2023/06/29 06:33:57;;;;;;;33.60;21.45;;;;;;;;;;5056610;28;20100;-75
2023/06/29 06:36:23;;;;;;;33.58;21.25;;;;;;;;;;5056123;28;20028;-75
2023/06/29 06:38:49;;;;;;;29.58;20.52;;;;;;;;;;5053831;28;20028;-75
2023/06/29 06:41:15;;;;;;;34.25;20.13;;;;;;;;;;5058598;28;20045;-75
2023/06/29 06:43:41;;;;;;;32.05;21.20;;;;;;;;;;5055774;28;20136;-75
2023/06/29 06:46:07;;;;;;;34.55;20.27;;;;;;;;;;5052529;28;20036;-75
2023/06/29 06:48:33;;;;;;;34.63;22.05;;;;;;;;;;5051760;28;20028;-75
2023/06/29 06:50:59;;;;;;;35.90;21.45;;;;;;;;;;5051871;28;20048;-75
2023/06/29 06:53:25;;;;;;;33.65;21.02;;;;;;;;;;5055861;28;20057;-75
2023/06/29 06:55:52;;;;;;;34.53;21.63;;;;;;;;;;5053195;28;20040;-75
2023/06/29 06:58:18;;;;;;;33.58;20.45;;;;;;;;;;5059730;28;20064;-75
2023/06/29 07:00:44;;;;;;;30.13;19.67;;;;;;;;;;5054565;28;20432;-75
2023/06/29 07:03:10;;;;;;;30.48;19.95;;;;;;;;;;5058124;28;20028;-75
2023/06/29 07:05:36;;;;;;;30.38;20.20;;;;;;;;;;5057571;28;20037;-75
2023/06/29 07:08:02;;;;;;;33.92;20.10;;;;;;;;;;5059237;28;20033;-75
2023/06/29 07:10:28;;;;;;;34.03;20.52;;;;;;;;;;5056814;28;20113;-75
2023/06/29 07:12:54;;;;;;;28.90;20.50;;;;;;;;;;5051772;28;20533;-74
2023/06/29 07:15:20;;;;;;;34.65;21.02;;;;;;;;;;5058614;28;20081;-74
2023/06/29 07:17:47;;;;;;;35.58;22.05;;;;;;;;;;5059121;28;20060;-74
2023/06/29 07:20:14;;;;;;;37.28;21.70;;;;;;;;;;5052958;28;20474;-75
2023/06/29 07:22:40;;;;;;;33.03;21.92;;;;;;;;;;5053189;28;20356;-73
2023/06/29 07:25:07;;;;;;;32.13;20.70;;;;;;;;;;5058559;28;20040;-74
2023/06/29 07:27:33;;;;;;;32.67;21.30;;;;;;;;;;5057246;28;20049;-74
2023/06/29 07:29:59;;;;;;;30.33;20.73;;;;;;;;;;5060692;28;20064;-74
2023/06/29 07:32:25;;;;;;;31.75;21.42;;;;;;;;;;5061830;28;20122;-74
2023/06/29 07:34:51;;;;;;;30.90;21.48;;;;;;;;;;5054222;28;20040;-75
2023/06/29 07:37:17;;;;;;;31.25;21.80;;;;;;;;;;5055260;28;20044;-75
2023/06/29 07:39:43;;;;;;;33.65;22.70;;;;;;;;;;5058162;28;20067;-74
2023/06/29 07:42:09;;;;;;;33.47;20.60;;;;;;;;;;5057309;28;20049;-74
2023/06/29 07:44:35;;;;;;;30.60;22.38;;;;;;;;;;5046180;28;20068;-72
2023/06/29 07:47:01;;;;;;;31.67;21.23;;;;;;;;;;5053213;28;20130;-82
2023/06/29 07:49:27;;;;;;;30.65;22.67;;;;;;;;;;5041779;28;20033;-85
2023/06/29 07:51:53;;;;;;;34.00;23.58;;;;;;;;;;5054505;28;20438;-83
2023/06/29 07:54:19;;;;;;;33.92;23.48;;;;;;;;;;5049487;28;20041;-88
2023/06/29 07:56:45;;;;;;;32.83;23.13;;;;;;;;;;5039534;28;20044;-83
2023/06/29 07:59:11;;;;;;;32.58;22.30;;;;;;;;;;5044148;28;20033;-84
2023/06/29 08:01:37;;;;;;;32.78;23.50;;;;;;;;;;5052528;28;20478;-89
2023/06/29 08:04:04;;;;;;;31.60;22.02;;;;;;;;;;5053101;28;20040;-90
2023/06/29 08:06:31;;;;;;;36.05;23.63;;;;;;;;;;5045963;28;20542;-74
2023/06/29 08:08:57;;;;;;;32.65;23.67;;;;;;;;;;5043909;28;20041;-74
2023/06/29 08:11:23;;;;;;;33.70;23.40;;;;;;;;;;5062144;28;20045;-75
2023/06/29 08:13:49;;;;;;;34.78;24.35;;;;;;;;;;5055800;28;20029;-75
2023/06/29 08:16:16;;;;;;;43.85;24.83;;;;;;;;;;5047664;28;20053;-72
2023/06/29 08:18:42;;;;;;;53.78;35.55;;;;;;;;;;5045147;28;20631;-71
2023/06/29 08:21:10;;;;;;;40.63;26.30;;;;;;;;;;5060884;28;20032;-71
2023/06/29 08:23:36;;;;;;;34.28;24.00;;;;;;;;;;5056605;28;20036;-71
2023/06/29 08:26:04;;;;;;;38.13;24.63;;;;;;;;;;5055920;28;20030;-74
2023/06/29 08:28:30;;;;;;;37.20;24.38;;;;;;;;;;5049573;28;20104;-75
2023/06/29 08:30:56;;;;;;;39.88;24.63;;;;;;;;;;5048454;28;20037;-75
2023/06/29 08:33:23;;;;;;;42.40;22.63;;;;;;;;;;5056342;28;20032;-77
2023/06/29 08:35:50;;;;;;;40.78;23.80;;;;;;;;;;5047181;28;20214;-77
2023/06/29 08:38:16;;;;;;;36.35;24.38;;;;;;;;;;5052982;28;20120;-77
2023/06/29 08:40:45;;;;;;;46.78;23.88;;;;;;;;;;5043002;28;20139;-77
2023/06/29 08:43:11;;;;;;;36.08;22.65;;;;;;;;;;5056934;28;20492;-77
2023/06/29 08:45:38;;;;;;;35.38;23.30;;;;;;;;;;5054547;28;20052;-76
2023/06/29 08:48:04;;;;;;;32.60;23.98;;;;;;;;;;5053069;28;20029;-74
2023/06/29 08:50:30;;;;;;;33.33;24.27;;;;;;;;;;5049620;28;20450;-73
2023/06/29 08:52:57;;;;;;;38.08;25.20;;;;;;;;;;5058539;28;20118;-74
2023/06/29 08:55:23;;;;;;;34.75;21.42;;;;;;;;;;5052905;28;20099;-72
2023/06/29 08:57:49;;;;;;;32.70;22.60;;;;;;;;;;5053313;28;20032;-74
2023/06/29 09:00:16;;;;;;;31.40;22.60;;;;;;;;;;5048896;28;20033;-73
2023/06/29 09:02:43;;;;;;;30.30;22.05;;;;;;;;;;5041853;28;20394;-74
2023/06/29 09:05:13;;;;;;;30.80;22.00;;;;;;;;;;5041464;28;20762;-73
2023/06/29 09:07:41;;;;;;;27.17;20.77;;;;;;;;;;5034635;28;20040;-74
2023/06/29 09:10:10;;;;;;;29.63;21.67;;;;;;;;;;5053786;28;20036;-75
2023/06/29 09:12:36;;;;;;;31.38;22.95;;;;;;;;;;5045182;28;20141;-77
2023/06/29 09:15:05;;;;;;;34.97;21.98;;;;;;;;;;5060578;28;20052;-77
2023/06/29 09:17:33;;;;;;;28.08;22.15;;;;;;;;;;5045727;28;20091;-80
2023/06/29 09:20:03;;;;;;;33.92;22.67;;;;;;;;;;5056141;28;20416;-76
2023/06/29 09:22:32;;;;;;;26.52;20.17;;;;;;;;;;5044227;28;20355;-80
2023/06/29 09:24:58;;;;;;;35.15;21.70;;;;;;;;;;5044846;28;20024;-79
2023/06/29 09:27:24;;;;;;;30.77;22.88;;;;;;;;;;5046598;28;20026;-83
2023/06/29 09:29:51;;;;;;;34.42;23.58;;;;;;;;;;5045411;28;20040;-79
2023/06/29 09:32:17;;;;;;;31.83;22.48;;;;;;;;;;5060371;28;20032;-81
2023/06/29 09:34:47;;;;;;;31.50;21.98;;;;;;;;;;5047854;28;20487;-78
2023/06/29 09:37:15;;;;;;;36.70;23.60;;;;;;;;;;5047037;28;20042;-77
2023/06/29 09:39:49;;;;;;;32.13;23.20;;;;;;;;;;5045070;28;21013;-76
2023/06/29 09:42:15;;;;;;;31.40;23.02;;;;;;;;;;5046951;28;20036;-79
2023/06/29 09:44:45;;;;;;;36.08;25.00;;;;;;;;;;5055575;28;20470;-76
2023/06/29 09:47:12;;;;;;;32.58;26.05;;;;;;;;;;5036268;28;20509;-83
2023/06/29 09:49:48;;;;;;;32.63;26.10;;;;;;;;;;5043803;28;20037;-81
2023/06/29 09:52:15;;;;;;;36.15;26.52;;;;;;;;;;5044132;28;20053;-72
2023/06/29 09:54:43;;;;;;;36.78;24.98;;;;;;;;;;5041656;28;20078;-73
2023/06/29 09:57:13;;;;;;;31.77;24.23;;;;;;;;;;5053323;28;20099;-72
2023/06/29 09:59:39;;;;;;;37.05;26.77;;;;;;;;;;5051447;28;20152;-72
2023/06/29 10:02:06;;;;;;;34.28;24.38;;;;;;;;;;5052196;28;20033;-72
2023/06/29 10:04:32;;;;;;;36.03;25.80;;;;;;;;;;5047769;28;20048;-72
2023/06/29 10:07:13;;;;;;;54.20;37.97;;;;;;;;;;5052601;28;20060;-83
2023/06/29 10:09:42;;;;;;;34.58;25.15;;;;;;;;;;5043821;28;20049;-82
2023/06/29 10:12:10;;;;;;;36.50;26.55;;;;;;;;;;5044203;28;20033;-75
2023/06/29 10:14:37;;;;;;;39.08;26.25;;;;;;;;;;5048003;28;20179;-77
2023/06/29 10:17:06;;;;;;;33.20;24.92;;;;;;;;;;5045622;28;20075;-76
2023/06/29 10:19:34;;;;;;;32.95;25.20;;;;;;;;;;5049834;28;20033;-76
2023/06/29 10:22:04;;;;;;;41.55;26.60;;;;;;;;;;5044746;28;20061;-76
2023/06/29 10:24:31;;;;;;;36.17;26.48;;;;;;;;;;5046619;28;20040;-76
2023/06/29 10:26:58;;;;;;;37.75;27.75;;;;;;;;;;5049906;28;20033;-74
2023/06/29 10:29:24;;;;;;;35.25;26.17;;;;;;;;;;5047330;28;20048;-75
2023/06/29 10:31:56;;;;;;;36.80;26.17;;;;;;;;;;5045969;28;20073;-79
2023/06/29 10:34:22;;;;;;;37.80;27.03;;;;;;;;;;5045042;28;20479;-69
2023/06/29 10:36:50;;;;;;;38.13;28.83;;;;;;;;;;5063615;28;20531;-73
2023/06/29 10:39:35;;;;;;;38.33;31.20;;;;;;;;;;5071846;28;20029;-75
2023/06/29 10:42:01;;;;;;;36.55;26.60;;;;;;;;;;5040084;28;20108;-69
2023/06/29 10:44:34;;;;;;;34.00;26.35;;;;;;;;;;5053737;28;20025;-70
2023/06/29 10:47:00;;;;;;;35.67;26.98;;;;;;;;;;5060141;28;20584;-70
2023/06/29 10:49:28;;;;;;;33.60;26.70;;;;;;;;;;5054515;28;20024;-71
2023/06/29 10:52:04;;;;;;;34.53;26.23;;;;;;;;;;5053581;28;20119;-70
2023/06/29 10:54:30;;;;;;;38.97;28.65;;;;;;;;;;5052177;28;20119;-69
2023/06/29 10:57:00;;;;;;;41.88;28.70;;;;;;;;;;5052716;28;20089;-71
2023/06/29 10:59:31;;;;;;;37.50;27.60;;;;;;;;;;5045038;28;20037;-71
2023/06/29 11:01:57;;;;;;;39.10;27.97;;;;;;;;;;5055696;28;20039;-69
2023/06/29 11:04:24;;;;;;;42.22;30.13;;;;;;;;;;5056081;28;20345;-72
2023/06/29 11:06:50;;;;;;;40.90;30.65;;;;;;;;;;5059444;28;20103;-71
2023/06/29 11:09:16;;;;;;;41.08;30.70;;;;;;;;;;5057116;28;20032;-87
2023/06/29 11:11:46;;;;;;;43.40;30.23;;;;;;;;;;5058981;28;20039;-85
2023/06/29 11:14:12;;;;;;;39.97;29.40;;;;;;;;;;5043842;28;20064;-78
2023/06/29 11:16:39;;;;;;;35.55;26.88;;;;;;;;;;5048425;28;20033;-74
2023/06/29 11:19:05;;;;;;;41.00;28.40;;;;;;;;;;5056057;28;20052;-74
2023/06/29 11:21:31;;;;;;;44.95;30.70;;;;;;;;;;5055216;28;20115;-77
2023/06/29 11:23:57;;;;;;;39.28;30.25;;;;;;;;;;5050606;28;20771;-79
2023/06/29 11:26:24;;;;;;;36.30;26.70;;;;;;;;;;5058456;28;20064;-70
2023/06/29 11:28:50;;;;;;;36.95;28.30;;;;;;;;;;5051040;28;20043;-69
2023/06/29 11:31:16;;;;;;;36.70;27.58;;;;;;;;;;5041397;28;20052;-70
2023/06/29 11:33:53;;;;;;;41.78;28.33;;;;;;;;;;5055966;28;20288;-69
2023/06/29 11:36:33;;;;;;;38.17;27.90;;;;;;;;;;5058725;28;20611;-69
2023/06/29 11:39:12;;;;;;;38.75;27.52;;;;;;;;;;5061017;28;20029;-70
2023/06/29 11:41:39;;;;;;;37.33;29.02;;;;;;;;;;5050504;28;20059;-69
2023/06/29 11:44:05;;;;;;;39.83;28.63;;;;;;;;;;5058951;28;20105;-69
2023/06/29 11:46:34;;;;;;;36.17;27.15;;;;;;;;;;5059484;28;20578;-68
2023/06/29 11:49:04;;;;;;;39.42;27.60;;;;;;;;;;5054547;28;20025;-69
2023/06/29 11:51:38;;;;;;;35.38;27.30;;;;;;;;;;5055474;28;20029;-68
2023/06/29 11:54:04;;;;;;;37.35;25.90;;;;;;;;;;5058320;28;20107;-70
2023/06/29 11:56:37;;;;;;;32.22;24.00;;;;;;;;;;5055945;28;20037;-71
2023/06/29 11:59:16;;;;;;;33.65;25.90;;;;;;;;;;5052876;28;20036;-71
2023/06/29 12:01:46;;;;;;;36.20;24.88;;;;;;;;;;5057590;28;20038;-72
2023/06/29 12:04:13;;;;;;;35.45;26.20;;;;;;;;;;5058766;28;20028;-70
2023/06/29 12:06:59;;;;;;;32.33;24.92;;;;;;;;;;5057123;28;20111;-69
2023/06/29 12:09:29;;;;;;;38.28;26.58;;;;;;;;;;5046878;28;20060;-70
2023/06/29 12:11:57;;;;;;;33.70;25.83;;;;;;;;;;5047528;28;20049;-69
2023/06/29 12:14:23;;;;;;;38.40;26.63;;;;;;;;;;5053417;28;20107;-69
2023/06/29 12:16:51;;;;;;;39.22;27.35;;;;;;;;;;5050912;28;20048;-70
2023/06/29 12:19:17;;;;;;;42.10;27.70;;;;;;;;;;5054540;28;20071;-70
2023/06/29 12:21:43;;;;;;;35.58;26.25;;;;;;;;;;5057550;28;20060;-69
2023/06/29 12:24:09;;;;;;;39.08;27.23;;;;;;;;;;5059701;28;20092;-68
2023/06/29 12:26:35;;;;;;;36.35;25.98;;;;;;;;;;5059870;28;20132;-69
2023/06/29 12:29:01;;;;;;;34.92;26.33;;;;;;;;;;5056100;28;20513;-69
2023/06/29 12:31:28;;;;;;;37.35;27.08;;;;;;;;;;5049197;28;20131;-70
2023/06/29 12:33:54;;;;;;;39.92;26.02;;;;;;;;;;5060487;28;20481;-70
2023/06/29 12:36:20;;;;;;;32.13;25.45;;;;;;;;;;5060754;28;20037;-71
2023/06/29 12:38:49;;;;;;;33.85;25.70;;;;;;;;;;5060523;28;20040;-70
2023/06/29 12:41:15;;;;;;;31.55;22.45;;;;;;;;;;5055381;28;20038;-70
2023/06/29 12:43:41;;;;;;;36.78;24.83;;;;;;;;;;5062884;28;20524;-70
2023/06/29 12:46:11;;;;;;;41.92;24.67;;;;;;;;;;5056392;28;20028;-70
2023/06/29 12:48:37;;;;;;;32.55;23.20;;;;;;;;;;5055929;28;20042;-71
2023/06/29 12:51:03;;;;;;;34.38;23.77;;;;;;;;;;5045111;28;20036;-69
2023/06/29 12:53:32;;;;;;;38.80;25.05;;;;;;;;;;5049418;28;20048;-69
2023/06/29 12:55:58;;;;;;;36.22;25.63;;;;;;;;;;5055297;28;20032;-71
2023/06/29 12:58:24;;;;;;;35.05;25.90;;;;;;;;;;5057470;28;20140;-70
2023/06/29 13:00:51;;;;;;;44.88;27.02;;;;;;;;;;5057196;28;20041;-70
2023/06/29 13:03:17;;;;;;;39.00;26.65;;;;;;;;;;5055371;28;20074;-70
2023/06/29 13:05:44;;;;;;;31.30;22.80;;;;;;;;;;5046931;28;20040;-70
2023/06/29 13:08:11;;;;;;;32.25;22.38;;;;;;;;;;5050358;28;20029;-68
2023/06/29 13:10:37;;;;;;;37.88;23.00;;;;;;;;;;5053924;28;20024;-71
2023/06/29 13:13:05;;;;;;;38.90;21.02;;;;;;;;;;5048635;28;20127;-70
2023/06/29 13:15:31;;;;;;;36.33;22.20;;;;;;;;;;5056249;28;20016;-70
2023/06/29 13:17:57;;;;;;;36.92;22.38;;;;;;;;;;5047146;28;20033;-71
2023/06/29 13:20:23;;;;;;;38.55;23.85;;;;;;;;;;5054241;28;20036;-71
2023/06/29 13:22:49;;;;;;;38.80;24.90;;;;;;;;;;5041725;28;20443;-70
2023/06/29 13:25:15;;;;;;;32.92;24.00;;;;;;;;;;5051925;28;20063;-71
2023/06/29 13:27:43;;;;;;;36.65;23.40;;;;;;;;;;5045052;28;20456;-70
2023/06/29 13:30:09;;;;;;;37.63;26.77;;;;;;;;;;5037507;28;20025;-68
2023/06/29 13:32:35;;;;;;;33.28;23.40;;;;;;;;;;5043960;28;20049;-68
2023/06/29 13:35:01;;;;;;;34.42;24.33;;;;;;;;;;5051017;28;20037;-67
2023/06/29 13:37:28;;;;;;;33.50;23.95;;;;;;;;;;5046189;28;20040;-68
2023/06/29 13:39:55;;;;;;;40.13;24.50;;;;;;;;;;5043265;28;20020;-75
2023/06/29 13:42:21;;;;;;;42.85;25.45;;;;;;;;;;5055590;28;20119;-70
2023/06/29 13:44:47;;;;;;;32.72;23.73;;;;;;;;;;5048395;28;20029;-71
2023/06/29 13:47:22;;;;;;;32.38;23.58;;;;;;;;;;5050823;28;20120;-71
2023/06/29 13:49:49;;;;;;;33.30;23.50;;;;;;;;;;5048564;28;20033;-71
2023/06/29 13:52:16;;;;;;;34.42;24.73;;;;;;;;;;5041854;28;20056;-71
2023/06/29 13:54:42;;;;;;;33.50;23.25;;;;;;;;;;5050765;28;20478;-72
2023/06/29 13:57:08;;;;;;;34.03;23.90;;;;;;;;;;5044206;28;20045;-71
2023/06/29 13:59:34;;;;;;;32.42;23.52;;;;;;;;;;5035804;28;20063;-71
2023/06/29 14:02:01;;;;;;;39.42;25.20;;;;;;;;;;5048916;28;20040;-72
2023/06/29 14:04:27;;;;;;;47.08;27.05;;;;;;;;;;5047004;28;20382;-71
2023/06/29 14:06:54;;;;;;;39.15;24.98;;;;;;;;;;5047409;28;20025;-69
2023/06/29 14:09:20;;;;;;;62.03;34.38;;;;;;;;;;5048343;28;20025;-73
2023/06/29 14:11:46;;;;;;;40.67;27.15;;;;;;;;;;5033887;28;20415;-75
2023/06/29 14:14:12;;;;;;;47.95;28.85;;;;;;;;;;5054008;28;20084;-70